Aérodrome :
LOGIN :

S'inscrire | Disclaimer

   EN    FR    IT 

 










Légende :    VFR   VFR Marginal   IFR   IFR Intensif   IFR Très Intensif
Visi : 
Plafond : 
>= 8 km
>= 3000ft
5 à 8 km
1000 à 3000 ft
1500m à 5 km
500 à 1000 ft
800 à 1500m
200 à 500 ft
< 800m
< 200 ft
Symboles :   Orages  Brouillard  Fortes neiges  Fortes précipitations  Vent > 20 kt
SIGMETs :   Divers  Orages  Givrage  Turbulence  Onde Orograph.  Cendres Volcan.






- Altitude de l'aérodrome : 39 ft
- Code IATA : CTA


LICC - Catania Fontanarossa

DERNIER METAR :
  • 230150Z 23002KT CAVOK 25/16 Q1010

METARs EXPIRÉS :
  • 230120Z VRB01KT CAVOK 25/16 Q1010
  • 230050Z VRB01KT CAVOK 26/16 Q1010
  • 230020Z 11004KT CAVOK 26/16 Q1009
  • 222350Z 08005KT CAVOK 26/16 Q1009
  • 222320Z 20008KT CAVOK 27/16 Q1009
  • 222250Z 20009KT CAVOK 28/16 Q1009
  • 222220Z 19010KT CAVOK 28/16 Q1009
  • 222150Z 18007KT CAVOK 28/16 Q1009
  • 222120Z 16006KT 120V200 9999 FEW070 29/16 Q1009

TAF TAF LICC
Valide du 23 à 00h jusqu'au 24 à 00h UTC


222300Z 2300/2324 VRB05KT 9999 FEW050
BECMG 2309/2311 10013KT
BECMG 2319/2321 VRB05KT



MET'MAP, la Météo Aéronautique d'un coup d'oeil ! - Copyright ORBIFLY Décembre 2007 - Disclaimer

ORBIFLY MET'MAP TEAM :

Programmation & Développement : Alexandra Zaïnal
Sur une idée originale de : Baudouin d'Aumeries
Soutien technique & logistique : Manuel Goepfert
Assistance : Marc-Olivier Méhu




SOURCES & CREDITS :

   NOAA